createdAt,value
2018-08-25T00:00:46.422Z,13.20
2018-08-25T00:03:15.915Z,13.30
2018-08-25T00:05:45.250Z,13.30
2018-08-25T00:08:14.635Z,13.30
2018-08-25T00:10:43.936Z,13.30
2018-08-25T00:13:13.601Z,13.20
2018-08-25T00:15:42.939Z,13.20
2018-08-25T00:18:12.335Z,13.20
2018-08-25T00:20:41.639Z,13.10
2018-08-25T00:23:10.958Z,13.10
2018-08-25T00:25:40.259Z,13.10
2018-08-25T00:28:09.563Z,13.10
2018-08-25T00:30:44.898Z,13.10
2018-08-25T00:33:14.307Z,13.10
2018-08-25T00:35:43.658Z,13.10
2018-08-25T00:38:13.120Z,13.10
2018-08-25T00:40:42.425Z,13.10
2018-08-25T00:43:11.699Z,13.10
2018-08-25T00:45:41.005Z,13.10
2018-08-25T00:48:10.253Z,13.10
2018-08-25T00:50:39.595Z,13.00
2018-08-25T00:53:08.878Z,13.00
2018-08-25T00:55:38.151Z,12.90
2018-08-25T00:58:07.906Z,13.00
2018-08-25T01:00:37.246Z,13.00
2018-08-25T01:03:06.522Z,12.90
2018-08-25T01:05:35.831Z,11.90
2018-08-25T01:08:05.620Z,12.80
2018-08-25T01:10:34.972Z,12.80
2018-08-25T01:13:04.256Z,12.90
2018-08-25T01:15:33.584Z,12.80
2018-08-25T01:18:02.828Z,12.80
2018-08-25T01:20:32.331Z,12.70
2018-08-25T01:23:01.624Z,12.70
2018-08-25T01:25:30.957Z,12.70
2018-08-25T01:28:06.647Z,12.70
2018-08-25T01:30:35.948Z,12.70
2018-08-25T01:33:05.279Z,12.70
2018-08-25T01:35:34.691Z,12.70
2018-08-25T01:38:03.962Z,12.70
2018-08-25T01:40:33.347Z,12.60
2018-08-25T01:43:02.662Z,12.60
2018-08-25T01:45:31.985Z,12.60
2018-08-25T01:48:01.306Z,12.60
2018-08-25T01:50:30.671Z,12.60
2018-08-25T01:53:00.892Z,12.60
2018-08-25T01:55:30.265Z,12.60
2018-08-25T01:57:59.598Z,12.60
2018-08-25T02:00:28.909Z,12.50
2018-08-25T02:02:58.211Z,12.50
2018-08-25T02:05:29.978Z,12.40
2018-08-25T02:08:01.986Z,12.40
2018-08-25T02:10:31.311Z,12.40
2018-08-25T02:13:00.623Z,12.40
2018-08-25T02:15:29.864Z,12.30
2018-08-25T02:17:59.225Z,12.30
2018-08-25T02:20:28.509Z,12.30
2018-08-25T02:22:58.119Z,12.30
2018-08-25T02:25:27.410Z,12.20
2018-08-25T02:27:56.733Z,12.20
2018-08-25T02:30:26.185Z,12.20
2018-08-25T02:32:56.339Z,12.20
2018-08-25T02:35:25.745Z,12.20
2018-08-25T02:37:55.050Z,12.30
2018-08-25T02:40:24.366Z,12.40
2018-08-25T02:42:53.654Z,12.40
2018-08-25T02:45:24.954Z,12.50
2018-08-25T02:47:54.953Z,12.50
2018-08-25T02:50:24.618Z,12.50
2018-08-25T02:52:53.974Z,12.60
2018-08-25T02:55:23.678Z,12.70
2018-08-25T02:57:52.959Z,12.70
2018-08-25T03:00:22.431Z,12.80
2018-08-25T03:02:51.738Z,12.80
2018-08-25T03:05:21.168Z,12.80
2018-08-25T03:07:50.423Z,12.80
2018-08-25T03:10:19.742Z,12.80
2018-08-25T03:12:49.024Z,12.80
2018-08-25T03:15:18.334Z,12.80
2018-08-25T03:17:47.577Z,12.80
2018-08-25T03:20:16.925Z,12.80
2018-08-25T03:22:46.215Z,12.90
2018-08-25T03:25:15.553Z,13.00
2018-08-25T03:27:44.832Z,13.00
2018-08-25T03:30:14.143Z,13.10
2018-08-25T03:32:43.388Z,13.10
2018-08-25T03:35:12.727Z,13.10
2018-08-25T03:37:41.992Z,13.10
2018-08-25T03:40:11.278Z,13.20
2018-08-25T03:42:40.567Z,13.20
2018-08-25T03:45:09.844Z,13.20
2018-08-25T03:47:39.140Z,13.30
2018-08-25T03:50:08.501Z,13.30
2018-08-25T03:52:37.828Z,13.30
2018-08-25T03:55:07.212Z,13.40
2018-08-25T03:57:36.498Z,13.40
2018-08-25T04:00:06.598Z,13.40
2018-08-25T04:02:35.925Z,13.40
2018-08-25T04:05:05.630Z,13.40
2018-08-25T04:07:34.950Z,13.50
2018-08-25T04:10:04.258Z,13.50
2018-08-25T04:12:33.551Z,13.50
2018-08-25T04:15:02.880Z,13.50
2018-08-25T04:17:32.191Z,13.50
2018-08-25T04:20:01.508Z,13.60
2018-08-25T04:22:30.809Z,13.60
2018-08-25T04:25:00.088Z,13.70
2018-08-25T04:27:29.493Z,13.70
2018-08-25T04:29:58.782Z,13.70
2018-08-25T04:32:28.332Z,13.80
2018-08-25T04:34:57.633Z,13.80
2018-08-25T04:37:27.053Z,13.80
2018-08-25T04:39:56.313Z,13.80
2018-08-25T04:42:25.614Z,13.90
2018-08-25T04:44:54.904Z,13.80
2018-08-25T04:47:24.269Z,13.80
2018-08-25T04:49:53.495Z,13.80
2018-08-25T04:52:23.905Z,13.80
2018-08-25T04:54:53.244Z,13.70
2018-08-25T04:57:22.599Z,13.70
2018-08-25T04:59:51.896Z,13.70
2018-08-25T05:02:21.194Z,13.80
2018-08-25T05:04:50.454Z,13.80
2018-08-25T05:07:19.759Z,13.80
2018-08-25T05:09:49.027Z,13.80
2018-08-25T05:12:18.342Z,13.80
2018-08-25T05:14:47.640Z,13.80
2018-08-25T05:17:17.014Z,13.80
2018-08-25T05:19:46.355Z,13.80
2018-08-25T05:22:15.712Z,13.80
2018-08-25T05:24:44.982Z,13.80
2018-08-25T05:27:14.364Z,13.80
2018-08-25T05:29:43.642Z,13.90
2018-08-25T05:32:12.993Z,13.90
2018-08-25T05:34:42.272Z,14.00
2018-08-25T05:37:11.763Z,14.00
2018-08-25T05:39:41.070Z,14.00
2018-08-25T05:42:10.406Z,14.00
2018-08-25T05:44:39.707Z,14.10
2018-08-25T05:49:38.145Z,14.20
2018-08-25T05:52:07.494Z,14.20
2018-08-25T05:54:37.747Z,14.20
2018-08-25T05:57:07.204Z,14.30
2018-08-25T05:59:36.658Z,14.30
2018-08-25T06:02:05.946Z,14.30
2018-08-25T06:04:36.183Z,14.30
2018-08-25T06:07:05.941Z,14.30
2018-08-25T06:09:36.563Z,14.30
2018-08-25T06:12:05.844Z,14.40
2018-08-25T06:14:35.216Z,14.40
2018-08-25T06:17:04.547Z,14.40
2018-08-25T06:19:33.885Z,14.40
2018-08-25T06:22:03.677Z,14.50
2018-08-25T06:24:33.967Z,14.50
2018-08-25T06:27:03.225Z,14.50
2018-08-25T06:29:32.529Z,14.60
2018-08-25T06:32:01.841Z,14.60
2018-08-25T06:34:31.129Z,14.60
2018-08-25T06:37:00.407Z,14.60
2018-08-25T06:39:29.739Z,14.60
2018-08-25T06:41:59.053Z,14.60
2018-08-25T06:44:28.369Z,14.60
2018-08-25T06:46:57.647Z,14.60
2018-08-25T06:49:27.020Z,14.60
2018-08-25T06:51:56.338Z,14.60
2018-08-25T06:54:25.638Z,14.60
2018-08-25T06:56:54.916Z,14.60
2018-08-25T06:59:24.250Z,14.60
2018-08-25T07:01:53.536Z,14.60
2018-08-25T07:04:22.835Z,14.60
2018-08-25T07:06:52.141Z,14.60
2018-08-25T07:09:21.434Z,14.60
2018-08-25T07:11:50.711Z,14.60
2018-08-25T07:14:20.083Z,14.50
2018-08-25T07:16:49.354Z,14.50
2018-08-25T07:19:18.661Z,14.50
2018-08-25T07:21:47.895Z,14.50
2018-08-25T07:24:17.161Z,14.50
2018-08-25T07:26:46.636Z,14.50
2018-08-25T07:29:15.959Z,14.50
2018-08-25T07:31:46.317Z,14.50
2018-08-25T07:34:15.654Z,14.60
2018-08-25T07:36:45.206Z,14.60
2018-08-25T07:39:14.592Z,14.60
2018-08-25T07:41:44.064Z,14.60
2018-08-25T07:44:13.323Z,14.70
2018-08-25T07:46:42.669Z,14.70
2018-08-25T07:49:11.965Z,14.70
2018-08-25T07:51:41.290Z,14.70
2018-08-25T07:54:10.606Z,14.70
2018-08-25T07:56:39.869Z,14.80
2018-08-25T07:59:09.192Z,14.80
2018-08-25T08:01:38.432Z,14.80
2018-08-25T08:04:07.713Z,14.90
2018-08-25T08:06:36.989Z,14.90
2018-08-25T08:09:09.459Z,14.90
2018-08-25T08:11:38.817Z,15.00
2018-08-25T08:14:08.035Z,15.00
2018-08-25T08:16:37.308Z,15.10
2018-08-25T08:19:06.594Z,15.20
2018-08-25T08:21:35.914Z,15.30
2018-08-25T08:24:05.635Z,15.40
2018-08-25T08:26:35.030Z,15.40
2018-08-25T08:29:04.346Z,15.50
2018-08-25T08:31:33.626Z,15.60
2018-08-25T08:34:03.057Z,15.70
2018-08-25T08:36:32.380Z,15.80
2018-08-25T08:39:01.698Z,15.90
2018-08-25T08:41:31.066Z,16.10
2018-08-25T08:44:00.371Z,16.20
2018-08-25T08:46:34.542Z,16.40
2018-08-25T08:49:05.791Z,16.60
2018-08-25T08:51:36.349Z,16.70
2018-08-25T08:54:05.747Z,16.80
2018-08-25T08:56:35.045Z,16.60
2018-08-25T08:59:04.382Z,16.60
2018-08-25T09:01:33.779Z,16.60
2018-08-25T09:04:03.118Z,16.50
2018-08-25T09:06:32.379Z,16.40
2018-08-25T09:09:01.829Z,16.50
2018-08-25T09:11:31.228Z,16.50
2018-08-25T09:14:00.592Z,16.60
2018-08-25T09:16:29.919Z,16.50
2018-08-25T09:18:59.253Z,16.40
2018-08-25T09:21:28.544Z,16.30
2018-08-25T09:23:58.065Z,16.20
2018-08-25T09:26:27.426Z,16.30
2018-08-25T09:28:56.873Z,16.10
2018-08-25T09:31:26.262Z,16.00
2018-08-25T09:33:55.922Z,16.00
2018-08-25T09:36:25.387Z,16.00
2018-08-25T09:38:54.967Z,16.00
2018-08-25T09:41:24.298Z,16.20
2018-08-25T09:43:54.178Z,16.20
2018-08-25T09:46:23.496Z,16.20
2018-08-25T09:48:53.106Z,16.20
2018-08-25T09:51:22.383Z,16.20
2018-08-25T09:53:51.768Z,16.10
2018-08-25T09:56:21.221Z,16.10
2018-08-25T09:58:50.674Z,16.10
2018-08-25T10:01:25.662Z,16.20
2018-08-25T10:03:55.514Z,16.10
2018-08-25T10:06:24.914Z,16.00
2018-08-25T10:08:54.878Z,16.00
2018-08-25T10:11:24.360Z,15.90
2018-08-25T10:13:53.846Z,15.90
2018-08-25T10:18:52.210Z,15.90
2018-08-25T10:21:21.504Z,15.90
2018-08-25T10:23:50.774Z,15.80
2018-08-25T10:26:20.063Z,15.70
2018-08-25T10:28:49.443Z,15.70
2018-08-25T10:31:18.690Z,15.60
2018-08-25T10:33:48.087Z,15.60
2018-08-25T10:36:17.447Z,15.60
2018-08-25T10:38:46.781Z,15.60
2018-08-25T10:41:16.138Z,15.70
2018-08-25T10:43:45.550Z,15.70
2018-08-25T10:46:14.906Z,15.70
2018-08-25T10:48:44.234Z,15.70
2018-08-25T10:51:13.505Z,15.60
2018-08-25T10:53:42.802Z,15.50
2018-08-25T10:56:12.101Z,15.40
2018-08-25T10:58:41.397Z,15.20
2018-08-25T11:01:10.765Z,15.20
2018-08-25T11:03:39.971Z,15.20
2018-08-25T11:06:09.281Z,15.20
2018-08-25T11:08:38.651Z,15.20
2018-08-25T11:11:07.993Z,15.10
2018-08-25T11:13:37.306Z,15.10
2018-08-25T11:16:06.723Z,15.10
2018-08-25T11:18:36.510Z,15.00
2018-08-25T11:21:05.925Z,15.00
2018-08-25T11:23:35.269Z,15.00
2018-08-25T11:26:04.538Z,14.90
2018-08-25T11:28:33.922Z,14.80
2018-08-25T11:31:03.290Z,14.80
2018-08-25T11:33:32.620Z,14.80
2018-08-25T11:36:01.993Z,14.80
2018-08-25T11:38:31.575Z,14.80
2018-08-25T11:41:00.887Z,14.80
2018-08-25T11:43:30.186Z,14.90
2018-08-25T11:46:00.189Z,14.90
2018-08-25T11:48:29.542Z,15.10
2018-08-25T11:50:59.378Z,15.40
2018-08-25T11:53:28.661Z,15.60
2018-08-25T11:55:58.364Z,15.70
2018-08-25T11:58:27.730Z,15.90
2018-08-25T12:00:57.096Z,16.00
2018-08-25T12:03:26.448Z,16.10
2018-08-25T12:05:55.777Z,15.90
2018-08-25T12:08:25.129Z,15.90
2018-08-25T12:10:54.475Z,15.90
2018-08-25T12:13:23.774Z,15.90
2018-08-25T12:15:53.103Z,15.80
2018-08-25T12:18:22.397Z,15.90
2018-08-25T12:20:51.726Z,15.90
2018-08-25T12:23:21.135Z,15.90
2018-08-25T12:25:50.469Z,15.90
2018-08-25T12:28:19.751Z,15.70
2018-08-25T12:30:49.038Z,15.60
2018-08-25T12:33:18.356Z,15.60
2018-08-25T12:35:47.622Z,15.60
2018-08-25T12:38:17.018Z,15.70
2018-08-25T12:40:46.308Z,15.70
2018-08-25T12:43:15.760Z,15.70
2018-08-25T12:45:45.030Z,15.60
2018-08-25T12:48:14.369Z,15.70
2018-08-25T12:50:43.670Z,15.90
2018-08-25T12:53:12.952Z,16.00
2018-08-25T12:55:42.292Z,16.10
2018-08-25T12:58:11.691Z,16.20
2018-08-25T13:00:40.991Z,16.40
2018-08-25T13:03:10.410Z,16.80
2018-08-25T13:05:39.683Z,17.00
2018-08-25T13:08:08.988Z,17.20
2018-08-25T13:10:38.259Z,17.20
2018-08-25T13:13:07.678Z,17.00
2018-08-25T13:15:36.962Z,15.00
2018-08-25T13:18:06.400Z,16.70
2018-08-25T13:20:35.704Z,16.70
2018-08-25T13:23:05.006Z,16.50
2018-08-25T13:25:34.661Z,16.40
2018-08-25T13:28:03.970Z,16.50
2018-08-25T13:30:33.221Z,16.60
2018-08-25T13:33:02.941Z,16.70
2018-08-25T13:35:32.226Z,16.80
2018-08-25T13:38:02.103Z,16.60
2018-08-25T13:40:31.374Z,16.50
2018-08-25T13:43:01.307Z,16.40
2018-08-25T13:45:30.679Z,16.10
2018-08-25T13:48:00.867Z,15.90
2018-08-25T13:50:30.130Z,15.80
2018-08-25T13:53:00.705Z,15.90
2018-08-25T13:55:30.018Z,15.70
2018-08-25T13:58:00.162Z,15.50
2018-08-25T14:00:29.441Z,15.10
2018-08-25T14:02:58.794Z,14.90
2018-08-25T14:05:28.110Z,14.70
2018-08-25T14:07:57.423Z,14.60
2018-08-25T14:10:26.727Z,14.50
2018-08-25T14:12:56.253Z,14.30
2018-08-25T14:15:25.543Z,14.30
2018-08-25T14:17:54.962Z,14.40
2018-08-25T14:20:24.337Z,14.50
2018-08-25T14:22:53.686Z,14.60
2018-08-25T14:25:23.027Z,14.60
2018-08-25T14:27:52.327Z,14.70
2018-08-25T14:30:21.610Z,14.90
2018-08-25T14:32:50.939Z,14.90
2018-08-25T14:35:20.225Z,15.00
2018-08-25T14:37:49.492Z,15.00
2018-08-25T14:40:18.876Z,15.10
2018-08-25T14:42:48.171Z,15.30
2018-08-25T14:45:17.550Z,15.50
2018-08-25T14:47:46.935Z,15.50
2018-08-25T14:50:16.247Z,15.60
2018-08-25T14:52:45.558Z,15.60
2018-08-25T14:55:14.889Z,15.60
2018-08-25T14:57:44.210Z,15.60
2018-08-25T15:00:13.580Z,15.60
2018-08-25T15:02:42.848Z,15.70
2018-08-25T15:05:12.322Z,15.70
2018-08-25T15:07:41.673Z,15.80
2018-08-25T15:10:11.050Z,15.80
2018-08-25T15:12:40.481Z,15.90
2018-08-25T15:15:09.898Z,16.00
2018-08-25T15:17:39.268Z,16.10
2018-08-25T15:20:08.634Z,16.20
2018-08-25T15:22:38.076Z,16.20
2018-08-25T15:25:07.511Z,16.30
2018-08-25T15:27:36.828Z,16.40
2018-08-25T15:30:07.491Z,16.30
2018-08-25T15:32:36.910Z,16.20
2018-08-25T15:35:07.283Z,16.00
2018-08-25T15:37:36.670Z,16.00
2018-08-25T15:40:07.124Z,16.00
2018-08-25T15:42:36.492Z,15.90
2018-08-25T15:45:07.697Z,15.90
2018-08-25T15:47:37.580Z,15.80
2018-08-25T15:50:07.971Z,15.80
2018-08-25T15:52:37.512Z,15.90
2018-08-25T15:55:08.015Z,15.80
2018-08-25T15:57:38.152Z,15.70
2018-08-25T16:00:08.331Z,15.80
2018-08-25T16:02:38.619Z,15.70
2018-08-25T16:05:09.344Z,15.70
2018-08-25T16:07:38.838Z,15.60
2018-08-25T16:10:08.784Z,15.50
2018-08-25T16:12:38.175Z,15.50
2018-08-25T16:15:08.107Z,14.10
2018-08-25T16:17:37.482Z,15.50
2018-08-25T16:20:07.656Z,15.60
2018-08-25T16:22:37.106Z,15.60
2018-08-25T16:25:07.435Z,15.60
2018-08-25T16:27:36.923Z,15.60
2018-08-25T16:30:06.802Z,15.80
2018-08-25T16:32:36.231Z,15.60
2018-08-25T16:35:05.748Z,15.70
2018-08-25T16:37:35.272Z,15.70
2018-08-25T16:40:05.341Z,15.70
2018-08-25T16:42:34.806Z,15.70
2018-08-25T16:45:04.159Z,15.70
2018-08-25T16:47:33.579Z,15.80
2018-08-25T16:50:02.963Z,15.80
2018-08-25T16:52:32.386Z,15.80
2018-08-25T16:55:01.775Z,15.70
2018-08-25T16:57:31.119Z,15.80
2018-08-25T17:00:00.529Z,15.80
2018-08-25T17:02:29.913Z,15.90
2018-08-25T17:04:59.553Z,15.90
2018-08-25T17:07:28.959Z,15.90
2018-08-25T17:09:58.418Z,15.90
2018-08-25T17:12:27.817Z,15.90
2018-08-25T17:14:57.327Z,15.90
2018-08-25T17:17:26.785Z,15.90
2018-08-25T17:19:56.241Z,15.90
2018-08-25T17:22:27.327Z,15.90
2018-08-25T17:24:56.833Z,15.80
2018-08-25T17:27:26.271Z,15.70
2018-08-25T17:29:55.623Z,15.60
2018-08-25T17:32:25.080Z,15.50
2018-08-25T17:34:54.545Z,15.40
2018-08-25T17:37:24.100Z,15.40
2018-08-25T17:39:53.611Z,15.40
2018-08-25T17:42:23.018Z,15.50
2018-08-25T17:44:52.626Z,15.70
2018-08-25T17:47:22.593Z,15.90
2018-08-25T17:49:52.001Z,15.80
2018-08-25T17:52:21.285Z,15.70
2018-08-25T17:54:50.622Z,15.50
2018-08-25T17:57:19.972Z,15.40
2018-08-25T17:59:49.276Z,15.10
2018-08-25T18:02:18.543Z,15.00
2018-08-25T18:04:47.902Z,14.90
2018-08-25T18:07:23.974Z,14.80
2018-08-25T18:09:53.338Z,14.60
2018-08-25T18:12:22.646Z,14.50
2018-08-25T18:14:52.022Z,14.40
2018-08-25T18:17:21.403Z,14.30
2018-08-25T18:19:50.757Z,14.20
2018-08-25T18:22:20.056Z,14.10
2018-08-25T18:24:49.415Z,14.00
2018-08-25T18:27:18.899Z,13.90
2018-08-25T18:29:48.285Z,13.90
2018-08-25T18:32:17.616Z,13.80
2018-08-25T18:34:46.949Z,13.70
2018-08-25T18:37:16.302Z,13.60
2018-08-25T18:39:45.709Z,13.50
2018-08-25T18:42:15.147Z,13.40
2018-08-25T18:44:44.477Z,13.30
2018-08-25T18:47:14.708Z,13.20
2018-08-25T18:49:44.176Z,13.20
2018-08-25T18:52:13.723Z,13.10
2018-08-25T18:54:43.289Z,13.10
2018-08-25T18:57:13.185Z,13.00
2018-08-25T18:59:42.592Z,12.90
2018-08-25T19:02:12.485Z,12.80
2018-08-25T19:04:41.670Z,12.70
2018-08-25T19:07:12.100Z,12.70
2018-08-25T19:09:41.411Z,12.70
2018-08-25T19:12:10.749Z,12.60
2018-08-25T19:14:40.040Z,12.60
2018-08-25T19:17:09.324Z,12.60
2018-08-25T19:19:38.856Z,12.50
2018-08-25T19:22:08.664Z,12.50
2018-08-25T19:24:39.112Z,12.40
2018-08-25T19:27:08.651Z,12.30
2018-08-25T19:29:38.035Z,12.20
2018-08-25T19:32:07.338Z,12.20
2018-08-25T19:34:37.166Z,12.10
2018-08-25T19:37:06.533Z,12.00
2018-08-25T19:39:35.860Z,12.00
2018-08-25T19:42:05.184Z,11.90
2018-08-25T19:44:34.804Z,11.90
2018-08-25T19:47:04.533Z,11.90
2018-08-25T19:49:34.047Z,11.90
2018-08-25T19:52:03.403Z,11.80
2018-08-25T19:54:32.807Z,11.80
2018-08-25T19:57:02.128Z,11.80
2018-08-25T19:59:31.517Z,11.80
2018-08-25T20:02:00.871Z,11.80
2018-08-25T20:04:30.214Z,11.80
2018-08-25T20:06:59.661Z,11.80
2018-08-25T20:09:29.039Z,11.80
2018-08-25T20:11:58.405Z,11.80
2018-08-25T20:14:27.900Z,11.70
2018-08-25T20:16:57.425Z,11.70
2018-08-25T20:19:26.765Z,11.70
2018-08-25T20:21:56.271Z,11.70
2018-08-25T20:24:25.736Z,11.70
2018-08-25T20:26:55.066Z,11.60
2018-08-25T20:29:24.522Z,11.60
2018-08-25T20:31:54.012Z,11.50
2018-08-25T20:34:23.357Z,11.60
2018-08-25T20:36:52.673Z,11.60
2018-08-25T20:39:22.044Z,11.60
2018-08-25T20:41:51.406Z,11.50
2018-08-25T20:44:20.731Z,11.50
2018-08-25T20:46:50.176Z,11.40
2018-08-25T20:49:19.822Z,11.30
2018-08-25T20:51:49.208Z,11.30
2018-08-25T20:54:19.212Z,11.40
2018-08-25T20:56:48.520Z,11.30
2018-08-25T20:59:18.564Z,11.30
2018-08-25T21:01:47.874Z,11.40
2018-08-25T21:04:18.364Z,11.30
2018-08-25T21:06:47.704Z,11.30
2018-08-25T21:09:17.072Z,11.30
2018-08-25T21:11:46.429Z,11.30
2018-08-25T21:14:15.757Z,11.30
2018-08-25T21:16:45.146Z,11.30
2018-08-25T21:19:14.514Z,11.30
2018-08-25T21:21:43.835Z,11.30
2018-08-25T21:24:13.141Z,11.30
2018-08-25T21:26:42.503Z,11.30
2018-08-25T21:29:11.876Z,11.30
2018-08-25T21:31:41.160Z,11.30
2018-08-25T21:34:10.517Z,11.30
2018-08-25T21:36:39.944Z,11.30
2018-08-25T21:39:11.184Z,11.40
2018-08-25T21:41:40.585Z,11.40
2018-08-25T21:44:09.889Z,11.40
2018-08-25T21:46:39.217Z,11.40
2018-08-25T21:49:08.535Z,11.40
2018-08-25T21:51:37.814Z,11.50
2018-08-25T21:54:07.406Z,11.50
2018-08-25T21:56:36.794Z,11.60
2018-08-25T21:59:06.102Z,11.70
2018-08-25T22:01:42.042Z,11.60
2018-08-25T22:04:12.410Z,11.50
2018-08-25T22:06:41.750Z,11.50
2018-08-25T22:09:12.243Z,11.40
2018-08-25T22:11:41.569Z,11.40
2018-08-25T22:14:10.912Z,11.40
2018-08-25T22:16:40.204Z,11.30
2018-08-25T22:19:09.554Z,11.30
2018-08-25T22:21:38.856Z,11.20
2018-08-25T22:24:08.214Z,11.20
2018-08-25T22:26:37.539Z,10.80
2018-08-25T22:29:06.869Z,11.20
2018-08-25T22:31:36.182Z,11.20
2018-08-25T22:34:05.505Z,11.20
2018-08-25T22:36:34.872Z,11.10
2018-08-25T22:39:05.836Z,11.00
2018-08-25T22:41:35.111Z,11.00
2018-08-25T22:44:04.468Z,10.80
2018-08-25T22:46:33.795Z,10.70
2018-08-25T22:49:03.130Z,10.70
2018-08-25T22:51:32.432Z,10.60
2018-08-25T22:54:01.728Z,10.50
2018-08-25T22:56:31.020Z,10.50
2018-08-25T22:59:00.350Z,10.50
2018-08-25T23:03:58.726Z,10.40
2018-08-25T23:06:28.028Z,10.30
2018-08-25T23:08:57.323Z,10.30
2018-08-25T23:11:27.414Z,10.20
2018-08-25T23:13:56.746Z,10.10
2018-08-25T23:16:26.024Z,10.10
2018-08-25T23:18:55.314Z,10.00
2018-08-25T23:21:24.563Z,9.90
2018-08-25T23:23:53.905Z,9.90
2018-08-25T23:26:23.223Z,9.80
2018-08-25T23:28:52.522Z,9.90
2018-08-25T23:31:21.835Z,9.80
2018-08-25T23:33:51.155Z,9.80
2018-08-25T23:36:20.413Z,9.80
2018-08-25T23:38:49.752Z,9.80
2018-08-25T23:41:19.058Z,9.80
2018-08-25T23:43:48.337Z,9.80
2018-08-25T23:46:17.668Z,9.70
2018-08-25T23:48:46.913Z,9.70
2018-08-25T23:51:16.240Z,9.60
2018-08-25T23:53:45.536Z,9.60
2018-08-25T23:56:21.043Z,9.50
2018-08-25T23:58:50.401Z,9.40
